sensor_id;sensor_type;location;lat;lon;timestamp;temperature;humidity
35593;DHT22;64447;52.140;5.602;2023-03-23T00:00:48;12.00;99.90
35593;DHT22;64447;52.140;5.602;2023-03-23T00:03:14;12.00;99.90
35593;DHT22;64447;52.140;5.602;2023-03-23T00:05:40;12.00;99.90
35593;DHT22;64447;52.140;5.602;2023-03-23T00:08:18;12.00;99.90
35593;DHT22;64447;52.140;5.602;2023-03-23T00:10:48;12.00;99.90
35593;DHT22;64447;52.140;5.602;2023-03-23T00:13:14;12.00;99.90
35593;DHT22;64447;52.140;5.602;2023-03-23T00:15:45;11.90;99.90
35593;DHT22;64447;52.140;5.602;2023-03-23T00:18:11;12.00;99.90
35593;DHT22;64447;52.140;5.602;2023-03-23T00:20:46;12.00;99.90
35593;DHT22;64447;52.140;5.602;2023-03-23T00:23:15;12.00;99.90
35593;DHT22;64447;52.140;5.602;2023-03-23T00:25:48;12.00;99.90
35593;DHT22;64447;52.140;5.602;2023-03-23T00:28:15;12.10;99.90
35593;DHT22;64447;52.140;5.602;2023-03-23T00:30:42;12.10;99.90
35593;DHT22;64447;52.140;5.602;2023-03-23T00:33:10;12.10;99.90
35593;DHT22;64447;52.140;5.602;2023-03-23T00:35:39;12.00;99.90
35593;DHT22;64447;52.140;5.602;2023-03-23T00:38:05;11.90;99.90
35593;DHT22;64447;52.140;5.602;2023-03-23T00:43:56;12.00;99.90
35593;DHT22;64447;52.140;5.602;2023-03-23T00:46:23;12.00;99.90
35593;DHT22;64447;52.140;5.602;2023-03-23T00:48:50;12.00;99.90
35593;DHT22;64447;52.140;5.602;2023-03-23T00:51:16;12.00;99.90
35593;DHT22;64447;52.140;5.602;2023-03-23T00:53:42;12.00;99.90
35593;DHT22;64447;52.140;5.602;2023-03-23T00:56:08;11.90;99.90
35593;DHT22;64447;52.140;5.602;2023-03-23T00:58:35;12.00;99.90
35593;DHT22;64447;52.140;5.602;2023-03-23T01:01:01;11.90;99.90
35593;DHT22;64447;52.140;5.602;2023-03-23T01:03:27;12.00;99.90
35593;DHT22;64447;52.140;5.602;2023-03-23T01:05:54;12.00;99.90
35593;DHT22;64447;52.140;5.602;2023-03-23T01:08:21;12.00;99.90
35593;DHT22;64447;52.140;5.602;2023-03-23T01:10:47;12.10;99.90
35593;DHT22;64447;52.140;5.602;2023-03-23T01:13:13;12.00;99.90
35593;DHT22;64447;52.140;5.602;2023-03-23T01:15:40;12.10;99.90
35593;DHT22;64447;52.140;5.602;2023-03-23T01:18:07;12.10;99.90
35593;DHT22;64447;52.140;5.602;2023-03-23T01:20:33;12.00;99.90
35593;DHT22;64447;52.140;5.602;2023-03-23T01:22:59;12.00;99.90
35593;DHT22;64447;52.140;5.602;2023-03-23T01:28:48;12.00;99.90
35593;DHT22;64447;52.140;5.602;2023-03-23T01:31:16;12.00;99.90
35593;DHT22;64447;52.140;5.602;2023-03-23T01:33:42;12.00;99.90
35593;DHT22;64447;52.140;5.602;2023-03-23T01:36:21;12.00;99.90
35593;DHT22;64447;52.140;5.602;2023-03-23T01:38:48;12.00;99.90
35593;DHT22;64447;52.140;5.602;2023-03-23T01:41:15;12.10;99.90
35593;DHT22;64447;52.140;5.602;2023-03-23T01:44:04;12.20;99.90
35593;DHT22;64447;52.140;5.602;2023-03-23T01:46:35;12.10;99.90
35593;DHT22;64447;52.140;5.602;2023-03-23T01:49:23;12.20;99.90
35593;DHT22;64447;52.140;5.602;2023-03-23T01:51:56;12.30;99.90
35593;DHT22;64447;52.140;5.602;2023-03-23T01:54:23;12.10;99.90
35593;DHT22;64447;52.140;5.602;2023-03-23T01:57:06;12.20;99.90
35593;DHT22;64447;52.140;5.602;2023-03-23T01:59:34;12.20;99.90
35593;DHT22;64447;52.140;5.602;2023-03-23T02:02:00;12.70;99.90
35593;DHT22;64447;52.140;5.602;2023-03-23T02:04:27;12.10;99.90
35593;DHT22;64447;52.140;5.602;2023-03-23T02:06:54;12.20;99.90
35593;DHT22;64447;52.140;5.602;2023-03-23T02:09:26;12.10;99.90
35593;DHT22;64447;52.140;5.602;2023-03-23T02:11:53;12.20;99.90
35593;DHT22;64447;52.140;5.602;2023-03-23T02:14:19;12.10;99.90
35593;DHT22;64447;52.140;5.602;2023-03-23T02:20:05;12.20;99.90
35593;DHT22;64447;52.140;5.602;2023-03-23T02:26:07;12.10;99.90
35593;DHT22;64447;52.140;5.602;2023-03-23T02:29:10;12.20;99.90
35593;DHT22;64447;52.140;5.602;2023-03-23T02:36:43;12.20;99.90
35593;DHT22;64447;52.140;5.602;2023-03-23T02:42:33;12.10;99.90
35593;DHT22;64447;52.140;5.602;2023-03-23T02:45:04;12.10;99.90
35593;DHT22;64447;52.140;5.602;2023-03-23T02:47:31;12.00;99.90
35593;DHT22;64447;52.140;5.602;2023-03-23T02:49:58;12.00;99.90
35593;DHT22;64447;52.140;5.602;2023-03-23T02:52:29;12.40;99.90
35593;DHT22;64447;52.140;5.602;2023-03-23T02:58:17;12.10;99.90
35593;DHT22;64447;52.140;5.602;2023-03-23T03:00:42;12.10;99.90
35593;DHT22;64447;52.140;5.602;2023-03-23T03:03:13;12.10;99.90
35593;DHT22;64447;52.140;5.602;2023-03-23T03:08:46;12.10;99.90
35593;DHT22;64447;52.140;5.602;2023-03-23T03:15:09;12.00;99.90
35593;DHT22;64447;52.140;5.602;2023-03-23T03:17:41;12.00;99.90
35593;DHT22;64447;52.140;5.602;2023-03-23T03:20:11;12.10;99.90
35593;DHT22;64447;52.140;5.602;2023-03-23T03:22:40;12.20;99.90
35593;DHT22;64447;52.140;5.602;2023-03-23T03:25:09;12.20;99.90
35593;DHT22;64447;52.140;5.602;2023-03-23T03:27:38;12.10;99.90
35593;DHT22;64447;52.140;5.602;2023-03-23T03:30:09;12.10;99.90
35593;DHT22;64447;52.140;5.602;2023-03-23T03:32:41;12.20;99.90
35593;DHT22;64447;52.140;5.602;2023-03-23T03:35:09;12.20;99.90
35593;DHT22;64447;52.140;5.602;2023-03-23T03:37:37;12.20;99.90
35593;DHT22;64447;52.140;5.602;2023-03-23T03:40:08;12.20;99.90
35593;DHT22;64447;52.140;5.602;2023-03-23T03:42:40;12.20;99.90
35593;DHT22;64447;52.140;5.602;2023-03-23T03:45:11;12.30;99.90
35593;DHT22;64447;52.140;5.602;2023-03-23T03:47:37;12.20;99.90
35593;DHT22;64447;52.140;5.602;2023-03-23T03:50:03;12.20;99.90
35593;DHT22;64447;52.140;5.602;2023-03-23T03:52:28;12.20;99.90
35593;DHT22;64447;52.140;5.602;2023-03-23T03:54:54;12.30;99.90
35593;DHT22;64447;52.140;5.602;2023-03-23T03:57:21;12.30;99.90
35593;DHT22;64447;52.140;5.602;2023-03-23T03:59:47;12.30;99.90
35593;DHT22;64447;52.140;5.602;2023-03-23T04:02:13;12.30;99.90
35593;DHT22;64447;52.140;5.602;2023-03-23T04:04:48;12.30;99.90
35593;DHT22;64447;52.140;5.602;2023-03-23T04:07:15;12.30;99.90
35593;DHT22;64447;52.140;5.602;2023-03-23T04:09:45;12.30;99.90
35593;DHT22;64447;52.140;5.602;2023-03-23T04:12:15;12.30;99.90
35593;DHT22;64447;52.140;5.602;2023-03-23T04:14:41;12.30;99.90
35593;DHT22;64447;52.140;5.602;2023-03-23T04:17:06;12.40;99.90
35593;DHT22;64447;52.140;5.602;2023-03-23T04:19:34;12.30;99.90
35593;DHT22;64447;52.140;5.602;2023-03-23T04:22:02;12.40;99.90
35593;DHT22;64447;52.140;5.602;2023-03-23T04:24:28;12.30;99.90
35593;DHT22;64447;52.140;5.602;2023-03-23T04:26:57;12.20;99.90
35593;DHT22;64447;52.140;5.602;2023-03-23T04:29:23;12.30;99.90
35593;DHT22;64447;52.140;5.602;2023-03-23T04:31:49;12.30;99.90
35593;DHT22;64447;52.140;5.602;2023-03-23T04:34:16;12.40;99.90
35593;DHT22;64447;52.140;5.602;2023-03-23T04:36:41;12.40;99.90
35593;DHT22;64447;52.140;5.602;2023-03-23T04:39:08;12.40;99.90
35593;DHT22;64447;52.140;5.602;2023-03-23T04:41:38;12.40;99.90
35593;DHT22;64447;52.140;5.602;2023-03-23T04:44:05;12.40;99.90
35593;DHT22;64447;52.140;5.602;2023-03-23T04:46:31;12.30;99.90
35593;DHT22;64447;52.140;5.602;2023-03-23T04:48:58;12.30;99.90
35593;DHT22;64447;52.140;5.602;2023-03-23T04:51:25;12.40;99.90
35593;DHT22;64447;52.140;5.602;2023-03-23T04:53:52;12.30;99.90
35593;DHT22;64447;52.140;5.602;2023-03-23T04:59:40;12.40;99.90
35593;DHT22;64447;52.140;5.602;2023-03-23T05:02:06;12.40;99.90
35593;DHT22;64447;52.140;5.602;2023-03-23T05:04:31;12.40;99.90
35593;DHT22;64447;52.140;5.602;2023-03-23T05:06:58;12.40;99.90
35593;DHT22;64447;52.140;5.602;2023-03-23T05:09:24;12.40;99.90
35593;DHT22;64447;52.140;5.602;2023-03-23T05:11:50;12.30;99.90
35593;DHT22;64447;52.140;5.602;2023-03-23T05:14:15;12.40;99.90
35593;DHT22;64447;52.140;5.602;2023-03-23T05:16:41;12.40;99.90
35593;DHT22;64447;52.140;5.602;2023-03-23T05:19:07;12.40;99.90
35593;DHT22;64447;52.140;5.602;2023-03-23T05:21:33;12.30;99.90
35593;DHT22;64447;52.140;5.602;2023-03-23T05:23:59;12.40;99.90
35593;DHT22;64447;52.140;5.602;2023-03-23T05:29:48;12.40;99.90
35593;DHT22;64447;52.140;5.602;2023-03-23T05:32:17;12.40;99.90
35593;DHT22;64447;52.140;5.602;2023-03-23T05:34:44;12.30;99.90
35593;DHT22;64447;52.140;5.602;2023-03-23T05:37:12;12.40;99.90
35593;DHT22;64447;52.140;5.602;2023-03-23T05:39:39;12.30;99.90
35593;DHT22;64447;52.140;5.602;2023-03-23T05:42:05;12.30;99.90
35593;DHT22;64447;52.140;5.602;2023-03-23T05:44:31;12.30;99.90
35593;DHT22;64447;52.140;5.602;2023-03-23T05:46:57;12.30;99.90
35593;DHT22;64447;52.140;5.602;2023-03-23T05:49:22;12.30;99.90
35593;DHT22;64447;52.140;5.602;2023-03-23T05:51:49;12.40;99.90
35593;DHT22;64447;52.140;5.602;2023-03-23T05:54:16;12.30;99.90
35593;DHT22;64447;52.140;5.602;2023-03-23T06:00:04;12.20;99.90
35593;DHT22;64447;52.140;5.602;2023-03-23T06:02:44;12.20;99.90
35593;DHT22;64447;52.140;5.602;2023-03-23T06:05:11;12.20;99.90
35593;DHT22;64447;52.140;5.602;2023-03-23T06:07:37;12.20;99.90
35593;DHT22;64447;52.140;5.602;2023-03-23T06:10:06;12.40;99.90
35593;DHT22;64447;52.140;5.602;2023-03-23T06:12:32;12.20;99.90
35593;DHT22;64447;52.140;5.602;2023-03-23T06:14:58;12.10;99.90
35593;DHT22;64447;52.140;5.602;2023-03-23T06:17:24;12.10;99.90
35593;DHT22;64447;52.140;5.602;2023-03-23T06:19:50;12.00;99.90
35593;DHT22;64447;52.140;5.602;2023-03-23T06:22:17;11.80;99.90
35593;DHT22;64447;52.140;5.602;2023-03-23T06:24:43;11.60;99.90
35593;DHT22;64447;52.140;5.602;2023-03-23T06:27:09;11.60;99.90
35593;DHT22;64447;52.140;5.602;2023-03-23T06:29:35;11.60;99.90
35593;DHT22;64447;52.140;5.602;2023-03-23T06:32:04;11.60;99.90
35593;DHT22;64447;52.140;5.602;2023-03-23T06:34:30;11.60;99.90
35593;DHT22;64447;52.140;5.602;2023-03-23T06:36:57;11.60;99.90
35593;DHT22;64447;52.140;5.602;2023-03-23T06:39:24;11.60;99.90
35593;DHT22;64447;52.140;5.602;2023-03-23T06:45:11;11.70;99.90
35593;DHT22;64447;52.140;5.602;2023-03-23T06:47:37;11.80;99.90
35593;DHT22;64447;52.140;5.602;2023-03-23T06:50:02;11.90;99.90
35593;DHT22;64447;52.140;5.602;2023-03-23T06:52:28;12.00;99.90
35593;DHT22;64447;52.140;5.602;2023-03-23T06:54:54;12.00;99.90
35593;DHT22;64447;52.140;5.602;2023-03-23T06:57:20;11.80;99.90
35593;DHT22;64447;52.140;5.602;2023-03-23T06:59:46;12.00;99.90
35593;DHT22;64447;52.140;5.602;2023-03-23T07:02:12;12.30;99.90
35593;DHT22;64447;52.140;5.602;2023-03-23T07:04:39;12.30;99.90
35593;DHT22;64447;52.140;5.602;2023-03-23T07:07:07;12.30;99.90
35593;DHT22;64447;52.140;5.602;2023-03-23T07:09:33;12.00;99.90
35593;DHT22;64447;52.140;5.602;2023-03-23T07:15:21;11.90;99.90
35593;DHT22;64447;52.140;5.602;2023-03-23T07:17:47;11.80;99.90
35593;DHT22;64447;52.140;5.602;2023-03-23T07:20:13;11.80;99.90
35593;DHT22;64447;52.140;5.602;2023-03-23T07:22:39;12.10;99.90
35593;DHT22;64447;52.140;5.602;2023-03-23T07:25:05;11.80;99.90
35593;DHT22;64447;52.140;5.602;2023-03-23T07:27:31;11.70;99.90
35593;DHT22;64447;52.140;5.602;2023-03-23T07:29:56;11.70;99.90
35593;DHT22;64447;52.140;5.602;2023-03-23T07:32:23;11.70;99.90
35593;DHT22;64447;52.140;5.602;2023-03-23T07:34:49;11.70;99.90
35593;DHT22;64447;52.140;5.602;2023-03-23T07:37:15;11.70;99.90
35593;DHT22;64447;52.140;5.602;2023-03-23T07:39:42;11.70;99.90
35593;DHT22;64447;52.140;5.602;2023-03-23T07:45:30;11.80;99.90
35593;DHT22;64447;52.140;5.602;2023-03-23T07:47:56;11.80;99.90
35593;DHT22;64447;52.140;5.602;2023-03-23T07:50:22;11.90;99.90
35593;DHT22;64447;52.140;5.602;2023-03-23T07:52:50;11.90;99.90
35593;DHT22;64447;52.140;5.602;2023-03-23T07:55:16;11.90;99.90
35593;DHT22;64447;52.140;5.602;2023-03-23T07:57:48;12.00;99.90
35593;DHT22;64447;52.140;5.602;2023-03-23T08:00:15;11.90;99.90
35593;DHT22;64447;52.140;5.602;2023-03-23T08:02:45;11.90;99.90
35593;DHT22;64447;52.140;5.602;2023-03-23T08:05:11;12.10;99.90
35593;DHT22;64447;52.140;5.602;2023-03-23T08:07:38;12.00;99.90
35593;DHT22;64447;52.140;5.602;2023-03-23T08:16:32;12.00;99.90
35593;DHT22;64447;52.140;5.602;2023-03-23T08:18:58;12.00;99.90
35593;DHT22;64447;52.140;5.602;2023-03-23T08:21:24;12.00;99.90
35593;DHT22;64447;52.140;5.602;2023-03-23T08:23:51;12.10;99.90
35593;DHT22;64447;52.140;5.602;2023-03-23T08:26:17;12.00;99.90
35593;DHT22;64447;52.140;5.602;2023-03-23T08:28:43;11.90;99.90
35593;DHT22;64447;52.140;5.602;2023-03-23T08:31:11;11.90;99.90
35593;DHT22;64447;52.140;5.602;2023-03-23T08:33:38;12.00;99.90
35593;DHT22;64447;52.140;5.602;2023-03-23T08:36:05;12.00;99.90
35593;DHT22;64447;52.140;5.602;2023-03-23T08:38:31;12.00;99.90
35593;DHT22;64447;52.140;5.602;2023-03-23T08:40:58;12.00;99.90
35593;DHT22;64447;52.140;5.602;2023-03-23T08:43:24;12.00;99.90
35593;DHT22;64447;52.140;5.602;2023-03-23T08:45:50;12.00;99.90
35593;DHT22;64447;52.140;5.602;2023-03-23T08:48:16;12.10;99.90
35593;DHT22;64447;52.140;5.602;2023-03-23T08:50:43;12.00;99.90
35593;DHT22;64447;52.140;5.602;2023-03-23T08:53:09;12.10;99.90
35593;DHT22;64447;52.140;5.602;2023-03-23T08:55:35;12.10;99.90
35593;DHT22;64447;52.140;5.602;2023-03-23T08:58:01;12.20;99.90
35593;DHT22;64447;52.140;5.602;2023-03-23T09:00:26;12.20;99.90
35593;DHT22;64447;52.140;5.602;2023-03-23T09:02:53;12.20;99.90
35593;DHT22;64447;52.140;5.602;2023-03-23T09:05:22;12.30;99.90
35593;DHT22;64447;52.140;5.602;2023-03-23T09:07:51;12.30;99.90
35593;DHT22;64447;52.140;5.602;2023-03-23T09:10:18;12.30;99.90
35593;DHT22;64447;52.140;5.602;2023-03-23T09:16:06;12.70;99.90
35593;DHT22;64447;52.140;5.602;2023-03-23T09:18:33;12.80;99.90
35593;DHT22;64447;52.140;5.602;2023-03-23T09:20:59;12.90;99.90
35593;DHT22;64447;52.140;5.602;2023-03-23T09:23:26;12.90;99.90
35593;DHT22;64447;52.140;5.602;2023-03-23T09:25:52;13.00;99.90
35593;DHT22;64447;52.140;5.602;2023-03-23T09:28:18;13.00;99.90
35593;DHT22;64447;52.140;5.602;2023-03-23T09:30:45;13.00;99.90
35593;DHT22;64447;52.140;5.602;2023-03-23T09:33:11;13.00;99.90
35593;DHT22;64447;52.140;5.602;2023-03-23T09:35:37;13.00;99.90
35593;DHT22;64447;52.140;5.602;2023-03-23T09:38:04;12.90;99.90
35593;DHT22;64447;52.140;5.602;2023-03-23T09:50:02;13.10;99.90
35593;DHT22;64447;52.140;5.602;2023-03-23T09:52:56;13.00;99.90
35593;DHT22;64447;52.140;5.602;2023-03-23T09:55:23;13.30;99.90
35593;DHT22;64447;52.140;5.602;2023-03-23T10:00:37;13.40;99.90
35593;DHT22;64447;52.140;5.602;2023-03-23T10:03:17;13.30;99.90
35593;DHT22;64447;52.140;5.602;2023-03-23T10:05:48;13.50;99.90
35593;DHT22;64447;52.140;5.602;2023-03-23T10:08:20;13.40;98.80
35593;DHT22;64447;52.140;5.602;2023-03-23T10:14:51;13.50;97.10
35593;DHT22;64447;52.140;5.602;2023-03-23T10:17:38;13.60;97.50
35593;DHT22;64447;52.140;5.602;2023-03-23T10:23:00;13.80;97.00
35593;DHT22;64447;52.140;5.602;2023-03-23T10:25:30;14.00;97.40
35593;DHT22;64447;52.140;5.602;2023-03-23T10:31:23;13.90;95.10
35593;DHT22;64447;52.140;5.602;2023-03-23T10:33:52;13.90;94.50
35593;DHT22;64447;52.140;5.602;2023-03-23T10:36:26;13.90;94.30
35593;DHT22;64447;52.140;5.602;2023-03-23T10:39:01;14.00;94.10
35593;DHT22;64447;52.140;5.602;2023-03-23T10:41:29;14.10;94.70
35593;DHT22;64447;52.140;5.602;2023-03-23T10:43:55;14.20;94.90
35593;DHT22;64447;52.140;5.602;2023-03-23T10:46:42;14.20;94.10
35593;DHT22;64447;52.140;5.602;2023-03-23T10:49:22;14.30;94.10
35593;DHT22;64447;52.140;5.602;2023-03-23T10:52:34;14.40;93.20
35593;DHT22;64447;52.140;5.602;2023-03-23T10:54:58;14.30;92.30
35593;DHT22;64447;52.140;5.602;2023-03-23T10:57:29;14.30;92.10
35593;DHT22;64447;52.140;5.602;2023-03-23T11:00:16;14.40;93.80
35593;DHT22;64447;52.140;5.602;2023-03-23T11:02:56;14.50;91.10
35593;DHT22;64447;52.140;5.602;2023-03-23T11:05:27;14.60;91.80
35593;DHT22;64447;52.140;5.602;2023-03-23T11:07:58;14.80;91.60
35593;DHT22;64447;52.140;5.602;2023-03-23T11:10:37;14.80;91.30
35593;DHT22;64447;52.140;5.602;2023-03-23T11:13:03;14.90;90.30
35593;DHT22;64447;52.140;5.602;2023-03-23T11:15:31;14.80;90.60
35593;DHT22;64447;52.140;5.602;2023-03-23T11:18:24;14.60;90.50
35593;DHT22;64447;52.140;5.602;2023-03-23T11:20:54;14.40;90.90
35593;DHT22;64447;52.140;5.602;2023-03-23T11:23:24;14.30;92.10
35593;DHT22;64447;52.140;5.602;2023-03-23T11:26:02;14.40;92.10
35593;DHT22;64447;52.140;5.602;2023-03-23T11:28:34;14.40;89.90
35593;DHT22;64447;52.140;5.602;2023-03-23T11:31:03;14.20;88.60
35593;DHT22;64447;52.140;5.602;2023-03-23T11:33:52;14.20;87.30
35593;DHT22;64447;52.140;5.602;2023-03-23T11:36:19;14.20;88.80
35593;DHT22;64447;52.140;5.602;2023-03-23T11:38:46;14.20;87.60
35593;DHT22;64447;52.140;5.602;2023-03-23T11:41:12;14.20;87.60
35593;DHT22;64447;52.140;5.602;2023-03-23T11:43:45;14.20;89.40
35593;DHT22;64447;52.140;5.602;2023-03-23T11:46:26;14.40;90.10
35593;DHT22;64447;52.140;5.602;2023-03-23T11:49:10;14.50;89.50
35593;DHT22;64447;52.140;5.602;2023-03-23T11:51:48;14.50;87.50
35593;DHT22;64447;52.140;5.602;2023-03-23T12:17:04;14.00;94.60
35593;DHT22;64447;52.140;5.602;2023-03-23T12:22:37;13.70;97.10
35593;DHT22;64447;52.140;5.602;2023-03-23T12:25:33;13.50;98.20
35593;DHT22;64447;52.140;5.602;2023-03-23T12:28:44;13.20;99.90
35593;DHT22;64447;52.140;5.602;2023-03-23T12:36:39;13.50;99.90
35593;DHT22;64447;52.140;5.602;2023-03-23T12:39:43;13.80;99.90
35593;DHT22;64447;52.140;5.602;2023-03-23T12:42:43;13.80;99.90
35593;DHT22;64447;52.140;5.602;2023-03-23T12:48:41;14.00;98.80
35593;DHT22;64447;52.140;5.602;2023-03-23T12:51:19;14.20;99.60
35593;DHT22;64447;52.140;5.602;2023-03-23T12:54:00;14.30;99.50
35593;DHT22;64447;52.140;5.602;2023-03-23T12:56:39;14.40;98.70
35593;DHT22;64447;52.140;5.602;2023-03-23T12:59:17;14.40;95.70
35593;DHT22;64447;52.140;5.602;2023-03-23T13:01:48;14.50;96.40
35593;DHT22;64447;52.140;5.602;2023-03-23T13:04:25;14.70;95.10
35593;DHT22;64447;52.140;5.602;2023-03-23T13:06:52;14.70;93.30
35593;DHT22;64447;52.140;5.602;2023-03-23T13:09:46;14.80;92.40
35593;DHT22;64447;52.140;5.602;2023-03-23T13:15:51;14.90;94.40
35593;DHT22;64447;52.140;5.602;2023-03-23T13:18:30;15.00;94.30
35593;DHT22;64447;52.140;5.602;2023-03-23T13:21:23;15.10;93.20
35593;DHT22;64447;52.140;5.602;2023-03-23T13:23:56;15.10;93.00
35593;DHT22;64447;52.140;5.602;2023-03-23T13:26:24;15.20;92.50
35593;DHT22;64447;52.140;5.602;2023-03-23T13:32:33;15.10;91.00
35593;DHT22;64447;52.140;5.602;2023-03-23T13:35:05;15.10;92.20
35593;DHT22;64447;52.140;5.602;2023-03-23T13:37:46;15.10;91.10
35593;DHT22;64447;52.140;5.602;2023-03-23T13:40:30;15.00;90.10
35593;DHT22;64447;52.140;5.602;2023-03-23T13:43:00;14.90;91.10
35593;DHT22;64447;52.140;5.602;2023-03-23T13:50:57;14.80;90.60
35593;DHT22;64447;52.140;5.602;2023-03-23T13:53:42;14.80;91.00
35593;DHT22;64447;52.140;5.602;2023-03-23T13:56:25;14.80;90.90
35593;DHT22;64447;52.140;5.602;2023-03-23T13:59:28;14.90;91.40
35593;DHT22;64447;52.140;5.602;2023-03-23T14:01:55;14.80;91.00
35593;DHT22;64447;52.140;5.602;2023-03-23T14:04:23;14.90;90.80
35593;DHT22;64447;52.140;5.602;2023-03-23T14:06:51;14.90;90.90
35593;DHT22;64447;52.140;5.602;2023-03-23T14:09:23;14.80;91.10
35593;DHT22;64447;52.140;5.602;2023-03-23T14:11:55;14.80;90.70
35593;DHT22;64447;52.140;5.602;2023-03-23T14:14:31;14.80;91.50
35593;DHT22;64447;52.140;5.602;2023-03-23T14:17:22;14.50;97.00
35593;DHT22;64447;52.140;5.602;2023-03-23T14:19:52;14.00;99.50
35593;DHT22;64447;52.140;5.602;2023-03-23T14:22:28;13.80;99.90
35593;DHT22;64447;52.140;5.602;2023-03-23T14:25:02;13.70;99.90
35593;DHT22;64447;52.140;5.602;2023-03-23T14:30:56;13.60;99.90
35593;DHT22;64447;52.140;5.602;2023-03-23T14:33:25;13.50;99.90
35593;DHT22;64447;52.140;5.602;2023-03-23T14:35:51;13.60;99.90
35593;DHT22;64447;52.140;5.602;2023-03-23T14:38:21;13.80;99.90
35593;DHT22;64447;52.140;5.602;2023-03-23T14:40:49;13.90;99.90
35593;DHT22;64447;52.140;5.602;2023-03-23T14:46:36;14.30;99.90
35593;DHT22;64447;52.140;5.602;2023-03-23T14:49:04;14.40;99.90
35593;DHT22;64447;52.140;5.602;2023-03-23T14:51:30;14.40;99.90
35593;DHT22;64447;52.140;5.602;2023-03-23T14:53:58;14.50;99.90
35593;DHT22;64447;52.140;5.602;2023-03-23T14:56:35;14.60;99.90
35593;DHT22;64447;52.140;5.602;2023-03-23T15:02:35;14.80;99.90
35593;DHT22;64447;52.140;5.602;2023-03-23T15:05:11;14.80;98.10
35593;DHT22;64447;52.140;5.602;2023-03-23T15:07:39;14.90;98.70
35593;DHT22;64447;52.140;5.602;2023-03-23T15:10:09;15.00;97.30
35593;DHT22;64447;52.140;5.602;2023-03-23T15:12:39;15.00;96.30
35593;DHT22;64447;52.140;5.602;2023-03-23T15:18:36;15.00;95.30
35593;DHT22;64447;52.140;5.602;2023-03-23T15:21:11;15.00;95.30
35593;DHT22;64447;52.140;5.602;2023-03-23T15:23:42;14.90;94.20
35593;DHT22;64447;52.140;5.602;2023-03-23T15:26:19;14.90;94.70
35593;DHT22;64447;52.140;5.602;2023-03-23T15:28:46;14.90;94.20
35593;DHT22;64447;52.140;5.602;2023-03-23T15:31:12;14.90;93.70
35593;DHT22;64447;52.140;5.602;2023-03-23T15:33:39;14.90;93.20
35593;DHT22;64447;52.140;5.602;2023-03-23T15:36:17;14.90;92.70
35593;DHT22;64447;52.140;5.602;2023-03-23T15:38:47;14.80;92.60
35593;DHT22;64447;52.140;5.602;2023-03-23T15:41:27;14.80;91.40
35593;DHT22;64447;52.140;5.602;2023-03-23T15:43:55;14.80;93.10
35593;DHT22;64447;52.140;5.602;2023-03-23T15:46:25;14.80;92.30
35593;DHT22;64447;52.140;5.602;2023-03-23T15:49:07;14.90;92.40
35593;DHT22;64447;52.140;5.602;2023-03-23T15:51:33;14.90;92.60
35593;DHT22;64447;52.140;5.602;2023-03-23T15:54:02;15.00;92.40
35593;DHT22;64447;52.140;5.602;2023-03-23T15:56:29;15.10;90.80
35593;DHT22;64447;52.140;5.602;2023-03-23T15:58:57;15.10;91.40
35593;DHT22;64447;52.140;5.602;2023-03-23T16:01:27;15.10;90.60
35593;DHT22;64447;52.140;5.602;2023-03-23T16:04:14;15.10;91.10
35593;DHT22;64447;52.140;5.602;2023-03-23T16:06:41;15.00;90.60
35593;DHT22;64447;52.140;5.602;2023-03-23T16:09:10;14.90;91.30
35593;DHT22;64447;52.140;5.602;2023-03-23T16:11:37;15.00;91.60
35593;DHT22;64447;52.140;5.602;2023-03-23T16:14:03;15.00;91.80
35593;DHT22;64447;52.140;5.602;2023-03-23T16:16:33;14.90;91.90
35593;DHT22;64447;52.140;5.602;2023-03-23T16:18:59;15.10;91.80
35593;DHT22;64447;52.140;5.602;2023-03-23T16:21:24;15.10;92.00
35593;DHT22;64447;52.140;5.602;2023-03-23T16:23:50;15.00;92.00
35593;DHT22;64447;52.140;5.602;2023-03-23T16:26:16;15.00;91.90
35593;DHT22;64447;52.140;5.602;2023-03-23T16:28:42;15.10;92.40
35593;DHT22;64447;52.140;5.602;2023-03-23T16:31:08;15.00;91.90
35593;DHT22;64447;52.140;5.602;2023-03-23T16:33:34;15.10;93.90
35593;DHT22;64447;52.140;5.602;2023-03-23T16:35:59;15.00;92.50
35593;DHT22;64447;52.140;5.602;2023-03-23T16:38:25;15.10;92.50
35593;DHT22;64447;52.140;5.602;2023-03-23T16:40:51;15.20;92.60
35593;DHT22;64447;52.140;5.602;2023-03-23T16:43:17;15.10;92.40
35593;DHT22;64447;52.140;5.602;2023-03-23T16:49:05;15.20;92.60
35593;DHT22;64447;52.140;5.602;2023-03-23T16:51:30;15.20;95.00
35593;DHT22;64447;52.140;5.602;2023-03-23T16:53:56;15.40;92.60
35593;DHT22;64447;52.140;5.602;2023-03-23T16:56:22;15.40;92.60
35593;DHT22;64447;52.140;5.602;2023-03-23T16:58:47;15.50;92.50
35593;DHT22;64447;52.140;5.602;2023-03-23T17:04:35;15.30;92.90
35593;DHT22;64447;52.140;5.602;2023-03-23T17:07:02;15.20;93.10
35593;DHT22;64447;52.140;5.602;2023-03-23T17:09:28;15.20;93.20
35593;DHT22;64447;52.140;5.602;2023-03-23T17:11:53;15.20;93.10
35593;DHT22;64447;52.140;5.602;2023-03-23T17:14:20;15.30;93.10
35593;DHT22;64447;52.140;5.602;2023-03-23T17:16:46;15.00;92.90
35593;DHT22;64447;52.140;5.602;2023-03-23T17:19:12;14.90;93.10
35593;DHT22;64447;52.140;5.602;2023-03-23T17:21:39;14.90;93.30
35593;DHT22;64447;52.140;5.602;2023-03-23T17:24:05;14.90;93.40
35593;DHT22;64447;52.140;5.602;2023-03-23T17:26:31;14.70;93.20
35593;DHT22;64447;52.140;5.602;2023-03-23T17:28:56;14.80;93.10
35593;DHT22;64447;52.140;5.602;2023-03-23T17:34:43;14.70;93.00
35593;DHT22;64447;52.140;5.602;2023-03-23T17:37:09;14.50;93.50
35593;DHT22;64447;52.140;5.602;2023-03-23T17:39:35;14.50;93.50
35593;DHT22;64447;52.140;5.602;2023-03-23T17:42:01;14.40;93.70
35593;DHT22;64447;52.140;5.602;2023-03-23T17:44:28;14.40;93.70
35593;DHT22;64447;52.140;5.602;2023-03-23T17:46:54;14.40;93.70
35593;DHT22;64447;52.140;5.602;2023-03-23T17:49:21;14.40;93.60
35593;DHT22;64447;52.140;5.602;2023-03-23T17:51:47;14.40;93.80
35593;DHT22;64447;52.140;5.602;2023-03-23T17:54:12;14.40;93.90
35593;DHT22;64447;52.140;5.602;2023-03-23T17:56:38;14.30;93.50
35593;DHT22;64447;52.140;5.602;2023-03-23T17:59:03;14.30;94.00
35593;DHT22;64447;52.140;5.602;2023-03-23T18:04:51;14.40;93.70
35593;DHT22;64447;52.140;5.602;2023-03-23T18:07:17;14.30;94.10
35593;DHT22;64447;52.140;5.602;2023-03-23T18:09:48;14.30;94.00
35593;DHT22;64447;52.140;5.602;2023-03-23T18:12:13;14.40;94.00
35593;DHT22;64447;52.140;5.602;2023-03-23T18:14:39;14.50;94.00
35593;DHT22;64447;52.140;5.602;2023-03-23T18:17:04;14.50;94.00
35593;DHT22;64447;52.140;5.602;2023-03-23T18:19:30;14.60;93.80
35593;DHT22;64447;52.140;5.602;2023-03-23T18:21:57;14.60;94.00
35593;DHT22;64447;52.140;5.602;2023-03-23T18:24:23;14.60;94.10